Time;durP1;ratioP1;P1;durP2;ratioP2;P2;SDS_P1;SDS_P2;PMS_P1;PMS_P2;Temp;Humidity;BMP_temperature;BMP_pressure;BME280_temperature;BME280_humidity;BME280_pressure;Samples;Min_cycle;Max_cycle;Signal;HPM_P1;HPM_P2
2022/05/24 00:02:20;;;;;;;14.40;8.70;;;15.70;99.90;;;;;;4986783;28;20421;-84
2022/05/24 00:04:46;;;;;;;14.27;8.47;;;15.80;99.90;;;;;;4982414;28;20208;-84
2022/05/24 00:07:12;;;;;;;13.63;9.73;;;15.80;99.90;;;;;;4981906;28;20182;-84
2022/05/24 00:09:38;;;;;;;13.10;8.80;;;15.80;99.90;;;;;;4982222;28;20917;-84
2022/05/24 00:12:04;;;;;;;15.60;9.17;;;15.80;99.90;;;;;;4980732;28;20952;-84
2022/05/24 00:17:14;;;;;;;13.90;9.20;;;15.80;99.90;;;;;;4998467;28;20412;-84
2022/05/24 00:19:40;;;;;;;14.70;8.80;;;15.90;99.90;;;;;;4980380;28;20456;-84
2022/05/24 00:22:05;;;;;;;11.57;7.90;;;15.90;99.90;;;;;;4980601;28;20661;-85
2022/05/24 00:24:31;;;;;;;15.37;9.63;;;15.90;99.90;;;;;;4997156;28;20574;-84
2022/05/24 00:26:56;;;;;;;12.83;9.50;;;15.90;99.90;;;;;;4979209;28;20185;-83
2022/05/24 00:29:22;;;;;;;12.40;8.70;;;15.90;99.90;;;;;;4979638;28;20178;-84
2022/05/24 00:31:48;;;;;;;13.00;9.47;;;15.90;99.90;;;;;;4979773;28;20231;-83
2022/05/24 00:34:14;;;;;;;14.87;10.60;;;15.90;99.90;;;;;;4979287;28;20182;-84
2022/05/24 00:36:39;;;;;;;13.80;9.80;;;15.90;99.90;;;;;;4979261;28;20428;-84
2022/05/24 00:39:05;;;;;;;14.10;9.23;;;15.90;99.90;;;;;;4996876;28;20177;-84
2022/05/24 00:41:40;;;;;;;14.00;8.60;;;15.90;99.90;;;;;;4996325;28;20626;-84
2022/05/24 00:44:15;;;;;;;16.00;9.53;;;16.00;99.90;;;;;;4978666;28;20562;-84
2022/05/24 00:47:05;;;;;;;15.23;9.73;;;16.00;99.90;;;;;;4978988;28;20413;-83
2022/05/24 00:49:51;;;;;;;14.97;9.63;;;16.10;99.90;;;;;;4978557;28;20472;-84
2022/05/24 00:52:22;;;;;;;12.10;9.10;;;16.10;99.90;;;;;;4978875;28;20421;-84
2022/05/24 00:54:48;;;;;;;12.67;8.30;;;16.10;99.90;;;;;;4978496;28;20488;-84
2022/05/24 00:57:26;;;;;;;14.87;10.07;;;16.20;99.90;;;;;;4978722;28;20417;-84
2022/05/24 01:00:06;;;;;;;13.63;9.70;;;16.20;99.90;;;;;;4978023;28;20839;-84
2022/05/24 01:02:32;;;;;;;12.60;9.47;;;16.20;99.90;;;;;;4979084;28;20982;-84
2022/05/24 01:04:58;;;;;;;14.17;9.30;;;16.20;99.90;;;;;;4978741;28;20866;-84
2022/05/24 01:07:24;;;;;;;13.90;9.07;;;16.30;99.90;;;;;;4978208;28;20436;-83
2022/05/24 01:09:58;;;;;;;11.27;8.27;;;16.30;99.90;;;;;;4978109;28;20268;-84
2022/05/24 01:12:32;;;;;;;12.43;8.83;;;16.30;99.90;;;;;;4978211;28;20432;-84
2022/05/24 01:15:01;;;;;;;10.63;8.00;;;16.20;99.90;;;;;;4977622;28;20471;-84
2022/05/24 01:17:27;;;;;;;10.07;7.90;;;16.20;99.90;;;;;;4977560;28;20940;-83
2022/05/24 01:19:52;;;;;;;10.13;7.37;;;16.20;99.90;;;;;;4994866;28;20457;-83
2022/05/24 01:22:46;;;;;;;11.03;7.67;;;16.20;99.90;;;;;;4977467;28;20189;-83
2022/05/24 01:25:56;;;;;;;10.20;7.17;;;16.20;99.90;;;;;;4976952;28;20204;-83
2022/05/24 01:28:25;;;;;;;12.33;7.20;;;16.20;99.90;;;;;;4972277;28;20468;-84
2022/05/24 01:30:51;;;;;;;9.43;7.47;;;16.20;99.90;;;;;;4994643;28;20841;-83
2022/05/24 01:36:10;;;;;;;9.70;6.57;;;16.20;99.90;;;;;;4994391;28;20228;-83
2022/05/24 01:38:36;;;;;;;7.77;6.37;;;16.20;99.90;;;;;;4994416;28;20405;-83
2022/05/24 01:41:03;;;;;;;9.53;6.93;;;16.20;99.90;;;;;;4994707;28;20968;-83
2022/05/24 01:43:29;;;;;;;9.80;7.00;;;16.20;99.90;;;;;;4976969;28;20496;-84
2022/05/24 01:46:02;;;;;;;8.60;6.20;;;16.20;99.90;;;;;;4994448;28;20572;-83
2022/05/24 01:48:37;;;;;;;10.53;7.03;;;16.20;99.90;;;;;;4976706;28;20431;-84
2022/05/24 01:51:05;;;;;;;9.83;7.30;;;16.10;99.90;;;;;;4977103;28;20502;-83
2022/05/24 01:53:37;;;;;;;10.33;6.43;;;16.10;99.90;;;;;;4976559;28;20420;-84
2022/05/24 01:56:06;;;;;;;8.30;6.70;;;16.00;99.90;;;;;;4993914;28;20556;-83
2022/05/24 01:58:35;;;;;;;11.60;7.40;;;16.10;99.90;;;;;;4975555;28;20515;-83
2022/05/24 02:01:24;;;;;;;9.87;7.03;;;16.00;99.90;;;;;;4975407;28;20467;-83
2022/05/24 02:03:50;;;;;;;9.30;5.70;;;16.00;99.90;;;;;;4992730;28;20433;-83
2022/05/24 02:06:25;;;;;;;7.80;5.93;;;16.00;99.90;;;;;;4992715;28;20779;-83
2022/05/24 02:08:51;;;;;;;7.70;5.30;;;15.90;99.90;;;;;;4975417;28;20429;-82
2022/05/24 02:11:24;;;;;;;6.87;4.90;;;15.80;99.90;;;;;;4975369;28;20951;-82
2022/05/24 02:13:54;;;;;;;5.33;4.10;;;15.70;99.90;;;;;;4975231;28;20847;-83
2022/05/24 02:16:22;;;;;;;5.67;3.60;;;15.70;99.90;;;;;;4974864;28;20452;-82
2022/05/24 02:18:50;;;;;;;6.03;3.93;;;15.70;99.90;;;;;;4992726;28;20509;-83
2022/05/24 02:21:16;;;;;;;5.30;3.57;;;15.70;99.90;;;;;;4975201;28;20460;-82
2022/05/24 02:23:48;;;;;;;6.90;4.50;;;15.60;99.90;;;;;;4975168;28;20801;-82
2022/05/24 02:26:16;;;;;;;6.43;4.03;;;15.50;99.90;;;;;;4974919;28;20210;-82
2022/05/24 02:28:43;;;;;;;6.60;4.00;;;15.50;99.90;;;;;;4974972;28;20524;-82
2022/05/24 02:31:12;;;;;;;10.40;4.30;;;15.50;99.90;;;;;;4992492;28;20503;-82
2022/05/24 02:33:39;;;;;;;5.80;4.23;;;15.50;99.90;;;;;;4974888;28;20498;-82
2022/05/24 02:36:05;;;;;;;9.63;5.27;;;15.40;99.90;;;;;;4992316;28;20441;-82
2022/05/24 02:38:31;;;;;;;5.90;3.90;;;15.40;99.90;;;;;;4994591;28;20421;-83
2022/05/24 02:43:41;;;;;;;5.77;4.53;;;15.50;99.90;;;;;;4996494;28;20721;-83
2022/05/24 02:46:07;;;;;;;6.63;4.53;;;15.50;99.90;;;;;;4995773;28;20512;-82
2022/05/24 02:48:35;;;;;;;9.17;4.90;;;15.60;99.90;;;;;;4978470;28;20263;-82
2022/05/24 02:51:00;;;;;;;7.50;4.80;;;15.50;99.90;;;;;;4978461;28;20498;-83
2022/05/24 02:53:26;;;;;;;6.77;4.60;;;15.50;99.90;;;;;;4978363;28;20432;-82
2022/05/24 02:55:52;;;;;;;7.83;5.47;;;15.50;99.90;;;;;;4977987;28;20227;-82
2022/05/24 02:58:18;;;;;;;10.43;5.47;;;15.50;99.90;;;;;;4978322;28;20672;-83
2022/05/24 03:00:44;;;;;;;7.17;4.83;;;15.40;99.90;;;;;;4995747;28;20256;-83
2022/05/24 03:03:10;;;;;;;6.87;4.70;;;15.40;99.90;;;;;;4977982;28;20428;-82
2022/05/24 03:05:36;;;;;;;5.47;3.40;;;15.30;99.90;;;;;;4977857;28;20209;-83
2022/05/24 03:10:46;;;;;;;5.97;3.90;;;15.30;99.90;;;;;;4998788;28;20193;-83
2022/05/24 03:15:56;;;;;;;5.60;3.00;;;15.30;99.90;;;;;;5000516;28;20212;-83
2022/05/24 03:18:23;;;;;;;5.40;3.27;;;15.20;99.90;;;;;;4983814;28;20428;-83
2022/05/24 03:20:48;;;;;;;5.17;3.23;;;15.20;99.90;;;;;;4982941;28;20592;-83
2022/05/24 03:23:15;;;;;;;6.20;3.13;;;15.20;99.90;;;;;;4982949;28;20508;-83
2022/05/24 03:25:41;;;;;;;7.77;3.50;;;15.20;99.90;;;;;;4982124;28;20205;-83
2022/05/24 03:28:07;;;;;;;3.90;2.23;;;15.10;99.90;;;;;;4981136;28;20516;-82
2022/05/24 03:30:38;;;;;;;4.80;2.60;;;15.10;99.90;;;;;;4977508;28;20186;-82
2022/05/24 03:33:04;;;;;;;5.13;2.73;;;15.10;99.90;;;;;;4977559;28;20842;-82
2022/05/24 03:35:29;;;;;;;7.53;2.70;;;15.20;99.90;;;;;;4977220;28;20539;-83
2022/05/24 03:37:55;;;;;;;6.20;2.53;;;15.20;99.90;;;;;;4977320;28;20232;-82
2022/05/24 03:40:20;;;;;;;4.50;3.37;;;15.10;99.90;;;;;;4977536;28;20212;-83
2022/05/24 03:42:47;;;;;;;4.30;2.77;;;15.20;99.90;;;;;;4978333;28;20184;-82
2022/05/24 03:45:13;;;;;;;5.50;3.10;;;15.10;99.90;;;;;;4981369;28;20296;-83
2022/05/24 03:47:39;;;;;;;5.30;3.23;;;15.10;99.90;;;;;;4981067;28;20501;-82
2022/05/24 03:50:07;;;;;;;10.60;3.37;;;15.10;99.90;;;;;;4980278;28;20472;-83
2022/05/24 03:52:33;;;;;;;8.63;3.47;;;15.10;99.90;;;;;;4998617;28;20423;-83
2022/05/24 03:54:58;;;;;;;5.17;2.97;;;15.00;99.90;;;;;;4980812;28;20460;-83
2022/05/24 04:00:10;;;;;;;4.80;3.00;;;15.00;99.90;;;;;;4998839;28;20217;-83
2022/05/24 04:02:36;;;;;;;3.80;2.50;;;15.00;99.90;;;;;;4979836;28;20425;-82
2022/05/24 04:05:01;;;;;;;8.10;2.20;;;15.00;99.90;;;;;;4996405;28;20433;-84
2022/05/24 04:07:27;;;;;;;6.20;2.27;;;15.00;99.90;;;;;;4979413;28;20519;-82
2022/05/24 04:09:52;;;;;;;3.83;2.90;;;15.00;99.90;;;;;;4979503;28;20608;-82
2022/05/24 04:12:18;;;;;;;5.50;3.10;;;14.90;99.90;;;;;;4978750;28;20189;-83
2022/05/24 04:14:43;;;;;;;4.33;2.50;;;15.00;99.90;;;;;;4978898;28;20202;-83
2022/05/24 04:17:09;;;;;;;4.63;2.67;;;14.90;99.90;;;;;;4978758;28;20185;-83
2022/05/24 04:19:35;;;;;;;4.20;3.00;;;14.90;99.90;;;;;;4979152;28;20185;-83
2022/05/24 04:22:00;;;;;;;4.20;2.50;;;14.80;99.90;;;;;;4996734;28;20180;-83
2022/05/24 04:24:26;;;;;;;4.83;2.87;;;14.90;99.90;;;;;;4978931;28;20284;-83
2022/05/24 04:26:51;;;;;;;4.57;2.70;;;14.80;99.90;;;;;;4977823;28;20188;-84
2022/05/24 04:29:17;;;;;;;4.80;2.20;;;14.80;99.90;;;;;;4996274;28;20236;-83
2022/05/24 04:31:42;;;;;;;4.60;3.10;;;14.70;99.90;;;;;;4978764;28;20200;-83
2022/05/24 04:34:08;;;;;;;4.40;2.93;;;14.60;99.90;;;;;;4996412;28;20178;-83
2022/05/24 04:36:33;;;;;;;4.27;2.47;;;14.50;99.90;;;;;;4978275;28;20197;-83
2022/05/24 04:38:59;;;;;;;3.73;2.60;;;14.20;99.90;;;;;;4978768;28;20186;-83
2022/05/24 04:44:09;;;;;;;4.93;3.30;;;14.00;99.90;;;;;;4996028;28;20205;-84
2022/05/24 04:49:21;;;;;;;10.30;3.43;;;13.80;99.90;;;;;;4996036;28;20164;-83
2022/05/24 04:51:46;;;;;;;3.40;2.30;;;13.70;99.90;;;;;;4978291;28;20425;-83
2022/05/24 04:54:12;;;;;;;3.40;2.27;;;13.70;99.90;;;;;;4978287;28;20507;-84
2022/05/24 04:56:37;;;;;;;7.73;2.73;;;13.60;99.90;;;;;;4995562;28;20177;-83
2022/05/24 04:59:03;;;;;;;7.40;3.60;;;13.50;99.90;;;;;;4977638;28;20186;-83
2022/05/24 05:01:29;;;;;;;7.40;3.37;;;13.40;99.90;;;;;;4977113;28;20711;-84
2022/05/24 05:03:54;;;;;;;4.97;3.43;;;13.40;99.90;;;;;;4977119;28;20277;-83
2022/05/24 05:06:20;;;;;;;6.53;3.37;;;13.40;99.90;;;;;;4976852;28;20283;-84
2022/05/24 05:08:46;;;;;;;5.30;2.80;;;13.40;99.90;;;;;;4976789;28;20186;-84
2022/05/24 05:11:12;;;;;;;4.67;2.67;;;13.50;99.90;;;;;;4976981;28;20186;-82
2022/05/24 05:13:37;;;;;;;6.13;3.20;;;13.50;99.90;;;;;;4993988;28;20533;-84
2022/05/24 05:16:03;;;;;;;5.40;3.30;;;13.50;99.90;;;;;;4976073;28;20201;-83
2022/05/24 05:18:29;;;;;;;5.27;2.83;;;13.40;99.90;;;;;;4976924;28;20197;-84
2022/05/24 05:20:54;;;;;;;5.07;3.00;;;13.40;99.90;;;;;;4995223;28;20205;-84
2022/05/24 05:23:20;;;;;;;7.03;3.43;;;13.30;99.90;;;;;;4977569;28;20181;-84
2022/05/24 05:25:49;;;;;;;7.10;2.90;;;13.20;99.90;;;;;;4976317;28;20297;-84
2022/05/24 05:28:16;;;;;;;5.33;3.30;;;13.20;99.90;;;;;;4976519;28;20587;-84
2022/05/24 05:33:26;;;;;;;4.77;3.10;;;13.10;99.90;;;;;;4994367;28;20408;-85
2022/05/24 05:35:52;;;;;;;4.90;2.97;;;13.10;99.90;;;;;;4993097;28;20437;-85
2022/05/24 05:38:18;;;;;;;3.93;2.87;;;13.10;99.90;;;;;;4975959;28;20196;-84
2022/05/24 05:40:44;;;;;;;4.73;3.00;;;13.10;99.90;;;;;;4993136;28;20452;-85
2022/05/24 05:43:10;;;;;;;5.67;2.93;;;13.00;99.90;;;;;;4992998;28;20479;-85
2022/05/24 05:45:37;;;;;;;4.23;2.53;;;13.00;99.90;;;;;;4979617;28;20436;-84
2022/05/24 05:48:03;;;;;;;3.27;2.07;;;12.90;99.90;;;;;;4994239;28;20504;-85
2022/05/24 05:50:28;;;;;;;5.83;2.50;;;12.80;99.90;;;;;;4993812;28;20835;-85
2022/05/24 05:52:54;;;;;;;4.13;2.00;;;12.70;99.90;;;;;;4975909;28;20433;-85
2022/05/24 05:55:20;;;;;;;4.70;3.20;;;12.70;99.90;;;;;;4992451;28;20221;-85
2022/05/24 05:57:46;;;;;;;2.90;1.70;;;12.60;99.90;;;;;;4975571;28;20212;-85
2022/05/24 06:00:13;;;;;;;4.77;2.50;;;12.60;99.90;;;;;;4993773;28;20785;-85
2022/05/24 06:02:39;;;;;;;5.60;2.77;;;12.50;99.90;;;;;;4975563;28;20432;-86
2022/05/24 06:05:05;;;;;;;4.73;2.37;;;12.60;99.90;;;;;;4975554;28;20441;-86
2022/05/24 06:07:31;;;;;;;3.63;1.97;;;12.50;99.90;;;;;;4975656;28;20188;-86
2022/05/24 06:09:57;;;;;;;4.30;1.90;;;12.40;99.90;;;;;;4975702;28;20991;-85
2022/05/24 06:12:24;;;;;;;3.03;2.10;;;12.50;99.90;;;;;;4975625;28;20516;-85
2022/05/24 06:14:49;;;;;;;4.10;1.50;;;12.40;99.90;;;;;;4979013;28;20464;-85
2022/05/24 06:17:15;;;;;;;3.60;1.47;;;12.30;99.90;;;;;;4978837;28;20177;-85
2022/05/24 06:19:41;;;;;;;4.20;1.63;;;12.30;99.90;;;;;;4978965;28;20178;-85
2022/05/24 06:22:06;;;;;;;5.30;1.43;;;12.30;99.90;;;;;;4979096;28;20178;-85
2022/05/24 06:24:32;;;;;;;3.27;1.57;;;12.20;99.90;;;;;;4996172;28;20193;-84
2022/05/24 06:26:57;;;;;;;2.47;1.30;;;12.20;99.90;;;;;;4978541;28;20185;-85
2022/05/24 06:29:24;;;;;;;4.23;1.87;;;12.20;99.90;;;;;;4979023;28;20174;-85
2022/05/24 06:31:50;;;;;;;4.43;1.60;;;12.10;99.90;;;;;;4978833;28;20201;-85
2022/05/24 06:34:15;;;;;;;2.90;1.50;;;12.20;99.90;;;;;;4996090;28;20467;-85
2022/05/24 06:36:41;;;;;;;4.67;1.63;;;12.20;99.90;;;;;;4995984;28;20547;-85
2022/05/24 06:39:07;;;;;;;5.50;2.07;;;12.20;99.90;;;;;;4996427;28;20181;-85
2022/05/24 06:41:33;;;;;;;2.70;1.40;;;12.30;99.90;;;;;;4978821;28;20416;-85
2022/05/24 06:43:58;;;;;;;4.27;1.77;;;12.40;99.90;;;;;;4978608;28;20264;-85
2022/05/24 06:46:24;;;;;;;5.07;1.63;;;12.50;99.90;;;;;;4978424;28;20645;-85
2022/05/24 06:48:50;;;;;;;3.20;1.90;;;12.60;99.90;;;;;;4978582;28;20281;-84
2022/05/24 06:51:21;;;;;;;3.30;1.67;;;12.70;99.90;;;;;;4978479;28;20202;-85
2022/05/24 06:53:49;;;;;;;3.17;1.70;;;12.70;99.90;;;;;;4978589;28;20174;-85
2022/05/24 06:56:14;;;;;;;2.60;1.40;;;12.70;99.90;;;;;;4977945;28;20491;-85
2022/05/24 06:58:40;;;;;;;3.07;1.53;;;12.80;99.90;;;;;;4978709;28;20449;-85
2022/05/24 07:03:52;;;;;;;3.17;1.43;;;12.90;99.90;;;;;;4996113;28;20268;-85
2022/05/24 07:06:17;;;;;;;3.20;1.73;;;13.10;99.90;;;;;;4995397;28;20475;-85
2022/05/24 07:08:44;;;;;;;2.90;1.40;;;13.20;99.90;;;;;;4978275;28;20182;-86
2022/05/24 07:11:11;;;;;;;2.33;1.27;;;13.10;99.90;;;;;;4977969;28;20210;-85
2022/05/24 07:13:39;;;;;;;3.00;1.80;;;13.20;99.90;;;;;;4978267;28;20416;-85
2022/05/24 07:16:06;;;;;;;2.90;1.83;;;13.30;99.90;;;;;;4977793;28;20445;-85
2022/05/24 07:18:31;;;;;;;4.80;1.30;;;13.40;99.90;;;;;;4977968;28;20413;-85
2022/05/24 07:20:57;;;;;;;3.43;2.00;;;13.50;99.90;;;;;;4995560;28;20516;-86
2022/05/24 07:23:26;;;;;;;2.77;1.40;;;;;;;;;;4977699;28;20464;-85
2022/05/24 07:25:54;;;;;;;5.17;1.70;;;13.90;99.90;;;;;;4977467;28;20206;-85
2022/05/24 07:28:21;;;;;;;2.80;1.70;;;13.90;99.90;;;;;;4977804;28;20432;-85
2022/05/24 07:30:48;;;;;;;6.80;2.20;;;14.00;99.90;;;;;;4977781;28;20461;-85
2022/05/24 07:33:16;;;;;;;3.73;1.70;;;14.10;99.90;;;;;;4977746;28;20427;-85
2022/05/24 07:35:42;;;;;;;3.50;1.90;;;14.40;99.90;;;;;;4994594;28;20955;-85
2022/05/24 07:38:10;;;;;;;4.93;1.93;;;14.70;99.90;;;;;;4977427;28;20425;-84
2022/05/24 07:46:12;;;;;;;5.40;2.33;;;15.10;99.90;;;;;;4994878;28;20927;-85
2022/05/24 07:48:38;;;;;;;3.43;2.07;;;15.20;99.90;;;;;;4977380;28;20842;-85
2022/05/24 07:51:04;;;;;;;7.70;3.00;;;15.10;99.90;;;;;;4977405;28;20515;-85
2022/05/24 07:53:30;;;;;;;5.70;2.10;;;14.90;99.90;;;;;;4977369;28;20487;-85
2022/05/24 07:55:57;;;;;;;6.30;1.80;;;14.90;99.90;;;;;;4976654;28;20484;-85
2022/05/24 07:58:24;;;;;;;3.33;1.90;;;14.90;99.90;;;;;;4977328;28;20897;-85
2022/05/24 08:00:50;;;;;;;4.00;2.10;;;15.10;99.90;;;;;;4977165;28;20899;-84
2022/05/24 08:03:15;;;;;;;2.93;2.17;;;15.30;99.90;;;;;;4977146;28;20457;-86
2022/05/24 08:05:41;;;;;;;4.90;2.10;;;15.70;99.90;;;;;;4976755;28;20217;-85
2022/05/24 08:08:09;;;;;;;3.90;2.60;;;15.70;99.90;;;;;;4977058;28;20185;-86
2022/05/24 08:10:36;;;;;;;3.60;2.00;;;16.00;99.90;;;;;;4976857;28;20209;-85
2022/05/24 08:13:10;;;;;;;3.43;2.03;;;16.70;99.90;;;;;;4977140;28;20426;-86
2022/05/24 08:15:36;;;;;;;3.33;2.00;;;17.10;99.90;;;;;;4976568;28;20524;-85
2022/05/24 08:18:03;;;;;;;3.70;1.90;;;17.90;99.90;;;;;;4977121;28;20912;-86
2022/05/24 08:20:29;;;;;;;2.83;1.77;;;19.00;99.90;;;;;;4976980;28;20427;-86
2022/05/24 08:22:56;;;;;;;3.00;1.87;;;19.10;99.90;;;;;;4976967;28;20417;-85
2022/05/24 08:25:22;;;;;;;4.67;2.10;;;18.30;99.90;;;;;;4976543;28;21000;-85
2022/05/24 08:27:47;;;;;;;2.93;1.77;;;17.40;99.90;;;;;;4976472;28;20464;-84
2022/05/24 08:30:15;;;;;;;3.23;2.03;;;16.60;99.90;;;;;;4976740;28;20248;-87
2022/05/24 08:32:42;;;;;;;4.53;2.10;;;16.10;99.90;;;;;;4976608;28;20188;-85
2022/05/24 08:35:10;;;;;;;3.20;2.13;;;15.80;99.90;;;;;;4993360;28;20441;-84
2022/05/24 08:37:36;;;;;;;3.17;1.83;;;16.00;99.90;;;;;;4976113;28;20803;-85
2022/05/24 08:40:02;;;;;;;3.30;1.70;;;17.90;99.90;;;;;;4976565;28;20421;-85
2022/05/24 08:42:50;;;;;;;3.07;1.70;;;19.10;99.90;;;;;;4976467;28;20194;-85
2022/05/24 08:48:28;;;;;;;2.67;1.23;;;17.20;99.90;;;;;;4993902;28;20432;-85
2022/05/24 08:51:18;;;;;;;3.70;1.50;;;16.40;99.90;;;;;;4976454;28;20543;-85
2022/05/24 08:53:46;;;;;;;3.83;1.70;;;17.30;99.90;;;;;;4976320;28;20414;-85
2022/05/24 08:56:18;;;;;;;3.00;1.20;;;18.60;99.90;;;;;;4994574;28;20850;-85
2022/05/24 08:58:50;;;;;;;3.07;1.50;;;18.00;99.90;;;;;;4976109;28;20921;-84
2022/05/24 09:01:24;;;;;;;2.40;1.40;;;17.30;99.90;;;;;;4993560;28;20406;-85
2022/05/24 09:03:50;;;;;;;2.40;1.20;;;17.20;99.90;;;;;;4975785;28;20421;-86
2022/05/24 09:06:48;;;;;;;3.60;1.47;;;19.00;99.90;;;;;;4975718;28;20463;-85
2022/05/24 09:09:38;;;;;;;2.67;1.33;;;18.60;99.90;;;;;;4993435;28;20794;-85
2022/05/24 09:12:28;;;;;;;2.87;1.30;;;18.90;99.90;;;;;;4976210;28;20983;-85
2022/05/24 09:18:37;;;;;;;3.70;1.50;;;17.40;99.90;;;;;;4995149;28;20400;-84
2022/05/24 09:21:03;;;;;;;2.30;1.10;;;16.40;99.90;;;;;;4975866;28;20405;-85
2022/05/24 09:23:39;;;;;;;3.13;1.47;;;16.00;99.90;;;;;;4982353;28;20432;-86
2022/05/24 09:26:10;;;;;;;3.00;1.50;;;15.80;99.90;;;;;;4975176;28;20443;-86
2022/05/24 09:28:51;;;;;;;3.57;1.30;;;15.90;99.90;;;;;;4993301;28;20487;-87
2022/05/24 09:31:35;;;;;;;4.30;1.33;;;16.50;99.90;;;;;;4975589;28;21172;-88
2022/05/24 09:34:07;;;;;;;2.70;1.30;;;16.60;99.90;;;;;;4975754;28;20413;-87
2022/05/24 09:36:39;;;;;;;4.53;1.30;;;18.00;99.90;;;;;;4985792;28;20431;-87
2022/05/24 09:39:27;;;;;;;3.93;1.37;;;20.10;99.90;;;;;;4995482;28;20412;-87
2022/05/24 09:42:03;;;;;;;2.80;1.30;;;19.70;99.90;;;;;;4995632;28;20427;-86
2022/05/24 09:44:47;;;;;;;4.00;1.30;;;18.90;99.90;;;;;;4992211;28;20490;-86
2022/05/24 09:47:25;;;;;;;2.57;1.17;;;18.80;99.90;;;;;;4974174;28;21095;-87
2022/05/24 09:49:51;;;;;;;2.80;1.30;;;19.30;99.90;;;;;;4975574;28;20812;-87
2022/05/24 09:52:17;;;;;;;5.10;1.50;;;19.10;99.90;;;;;;4975433;28;20425;-87
2022/05/24 09:54:57;;;;;;;3.23;1.30;;;19.50;99.90;;;;;;4975004;28;20221;-86
2022/05/24 09:57:27;;;;;;;3.23;1.40;;;19.70;99.90;;;;;;4993100;28;21022;-86
2022/05/24 09:59:59;;;;;;;2.77;1.40;;;20.20;99.90;;;;;;4976007;28;20773;-85
2022/05/24 10:02:31;;;;;;;3.00;1.47;;;20.20;99.90;;;;;;4975418;28;20515;-86
2022/05/24 10:04:58;;;;;;;3.23;1.40;;;20.30;99.90;;;;;;4975497;28;20984;-85
2022/05/24 10:07:26;;;;;;;2.40;1.23;;;20.70;99.90;;;;;;4975001;28;20807;-85
2022/05/24 10:09:59;;;;;;;2.27;1.37;;;21.90;99.90;;;;;;4975340;28;20449;-86
2022/05/24 10:12:40;;;;;;;3.10;1.30;;;22.50;99.90;;;;;;4976265;28;20520;-85
2022/05/24 10:15:09;;;;;;;3.07;1.30;;;22.90;99.90;;;;;;4998592;28;20448;-85
2022/05/24 10:17:50;;;;;;;2.90;1.43;;;22.60;99.90;;;;;;4986444;28;20425;-87
2022/05/24 10:20:49;;;;;;;2.73;1.30;;;22.40;99.90;;;;;;4993056;28;20769;-86
2022/05/24 10:23:43;;;;;;;3.17;1.47;;;21.70;99.90;;;;;;4973248;28;20516;-86
2022/05/24 10:26:39;;;;;;;2.47;1.30;;;21.10;99.90;;;;;;4975318;28;20433;-85
2022/05/24 10:29:21;;;;;;;3.17;1.40;;;20.10;99.90;;;;;;4993123;28;20397;-85
2022/05/24 10:31:50;;;;;;;2.67;1.43;;;19.30;99.90;;;;;;4993161;28;20452;-85
2022/05/24 10:38:18;;;;;;;2.60;1.30;;;18.10;99.90;;;;;;4994141;28;20391;-84
2022/05/24 10:41:25;;;;;;;2.50;1.40;;;17.70;99.90;;;;;;4971823;28;20436;-85
2022/05/24 10:44:01;;;;;;;4.10;1.60;;;17.60;99.90;;;;;;4980067;28;20488;-85
2022/05/24 10:46:51;;;;;;;3.17;1.73;;;17.70;99.90;;;;;;4975400;28;20769;-85
2022/05/24 10:49:42;;;;;;;3.13;1.33;;;17.70;99.90;;;;;;4992515;28;20952;-84
2022/05/24 10:52:23;;;;;;;3.60;1.60;;;17.90;99.90;;;;;;4975626;28;20429;-85
2022/05/24 10:55:12;;;;;;;4.67;2.63;;;18.40;99.90;;;;;;4975490;28;20566;-85
2022/05/24 10:58:00;;;;;;;3.17;1.43;;;18.80;99.90;;;;;;4975352;28;20854;-84
2022/05/24 11:00:40;;;;;;;2.83;1.50;;;19.10;99.90;;;;;;4978812;28;20424;-85
2022/05/24 11:03:19;;;;;;;2.63;1.37;;;19.20;99.90;;;;;;4978838;28;20559;-85
2022/05/24 11:05:46;;;;;;;2.80;1.20;;;19.30;99.90;;;;;;4995747;28;20527;-85
2022/05/24 11:08:12;;;;;;;2.27;1.23;;;19.60;99.90;;;;;;4978614;28;20456;-84
2022/05/24 11:10:41;;;;;;;2.50;1.37;;;19.40;99.90;;;;;;4996359;28;20863;-85
2022/05/24 11:13:12;;;;;;;2.60;1.23;;;19.30;99.90;;;;;;4978367;28;20321;-84
2022/05/24 11:15:49;;;;;;;3.00;1.40;;;19.00;99.90;;;;;;4997109;28;20469;-85
2022/05/24 11:18:18;;;;;;;3.53;1.50;;;18.90;99.90;;;;;;4979521;28;20428;-86
2022/05/24 11:20:56;;;;;;;3.30;1.37;;;19.00;99.90;;;;;;4978245;28;20907;-86
2022/05/24 11:23:46;;;;;;;2.30;1.50;;;19.00;99.90;;;;;;4978264;28;20428;-85
2022/05/24 11:26:24;;;;;;;3.57;1.47;;;18.90;99.90;;;;;;4978343;28;20460;-86
2022/05/24 11:29:19;;;;;;;3.20;1.47;;;18.50;99.90;;;;;;4995767;28;20480;-85
2022/05/24 11:31:49;;;;;;;5.27;1.73;;;18.50;99.90;;;;;;4978171;28;20492;-85
2022/05/24 11:34:25;;;;;;;4.27;1.57;;;18.40;99.90;;;;;;4978083;28;20416;-86
2022/05/24 11:37:20;;;;;;;3.13;1.53;;;18.50;99.90;;;;;;4995438;28;20425;-85
2022/05/24 11:39:46;;;;;;;3.00;1.50;;;18.60;99.90;;;;;;4995617;28;20885;-85
2022/05/24 11:42:36;;;;;;;3.00;1.57;;;18.80;99.90;;;;;;4978153;28;20503;-85
2022/05/24 11:45:37;;;;;;;2.73;1.50;;;19.20;99.90;;;;;;4977874;28;20555;-85
2022/05/24 11:48:06;;;;;;;2.17;1.10;;;19.40;99.90;;;;;;4947162;28;20429;-85
2022/05/24 11:50:31;;;;;;;2.40;1.20;;;19.60;99.90;;;;;;4977764;28;20471;-85
2022/05/24 11:53:09;;;;;;;2.40;1.20;;;19.50;99.90;;;;;;4977844;28;20425;-84
2022/05/24 11:55:38;;;;;;;3.23;1.20;;;19.30;99.90;;;;;;4977421;28;20213;-85
2022/05/24 11:58:25;;;;;;;2.47;1.10;;;19.40;99.90;;;;;;4977670;28;20439;-85
2022/05/24 12:01:55;;;;;;;2.53;1.17;;;19.40;99.90;;;;;;4977336;28;20432;-84
2022/05/24 12:09:59;;;;;;;2.23;1.10;;;19.60;99.90;;;;;;4994168;28;20455;-85
2022/05/24 12:12:34;;;;;;;3.50;1.20;;;19.80;99.90;;;;;;4994660;28;20504;-84
2022/05/24 12:15:24;;;;;;;3.23;1.20;;;20.00;99.90;;;;;;4977282;28;20193;-84
2022/05/24 12:17:59;;;;;;;2.30;1.20;;;20.20;99.90;;;;;;4977381;28;20417;-84
2022/05/24 12:20:46;;;;;;;3.33;1.00;;;20.70;99.90;;;;;;4977219;28;20932;-85
2022/05/24 12:23:32;;;;;;;3.07;1.30;;;20.90;99.90;;;;;;4984666;28;20432;-84
2022/05/24 12:26:12;;;;;;;2.30;0.97;;;20.80;99.90;;;;;;4976903;28;20444;-84
2022/05/24 12:28:38;;;;;;;2.10;0.90;;;21.00;99.90;;;;;;4977055;28;20428;-85
2022/05/24 12:31:12;;;;;;;2.90;1.40;;;21.20;99.90;;;;;;4976982;28;20470;-85
2022/05/24 12:33:43;;;;;;;4.83;1.73;;;21.40;99.90;;;;;;4977154;28;20181;-84
2022/05/24 12:36:16;;;;;;;2.60;1.30;;;21.40;99.90;;;;;;4993897;28;20801;-84
2022/05/24 12:38:48;;;;;;;2.83;1.40;;;21.00;99.90;;;;;;4984683;28;20433;-83
2022/05/24 12:41:30;;;;;;;2.20;1.17;;;20.80;99.90;;;;;;4994371;28;20431;-86
2022/05/24 12:44:14;;;;;;;3.17;1.57;;;20.80;99.90;;;;;;4979214;28;20995;-84
2022/05/24 12:46:42;;;;;;;4.10;1.60;;;20.70;99.90;;;;;;4994360;28;20504;-87
2022/05/24 12:49:17;;;;;;;2.63;1.30;;;20.50;99.90;;;;;;4994313;28;20787;-84
2022/05/24 12:51:43;;;;;;;2.40;1.37;;;20.70;99.90;;;;;;4997052;28;21046;-86
2022/05/24 12:54:30;;;;;;;2.20;1.20;;;20.80;99.90;;;;;;4997715;28;20429;-85
2022/05/24 12:57:06;;;;;;;2.30;1.30;;;20.60;99.90;;;;;;4995591;28;20205;-86
2022/05/24 12:59:40;;;;;;;3.77;3.40;;;20.30;99.90;;;;;;4995747;28;20416;-83
2022/05/24 13:02:30;;;;;;;2.43;1.30;;;20.30;99.90;;;;;;4992490;28;20492;-83
2022/05/24 13:05:08;;;;;;;2.93;1.70;;;20.10;99.90;;;;;;4993627;28;20429;-84
2022/05/24 13:07:43;;;;;;;3.40;1.77;;;19.60;99.90;;;;;;4993430;28;20956;-84
2022/05/24 13:10:14;;;;;;;2.60;1.20;;;18.40;99.90;;;;;;4992160;28;20468;-84
2022/05/24 13:12:41;;;;;;;5.23;1.73;;;;;;;;;;4992592;28;20433;-86
2022/05/24 13:15:11;;;;;;;3.10;2.10;;;16.60;99.90;;;;;;4992205;28;20975;-85
2022/05/24 13:17:42;;;;;;;2.70;1.80;;;16.30;99.90;;;;;;4992116;28;20799;-85
2022/05/24 13:20:10;;;;;;;3.30;2.20;;;16.00;99.90;;;;;;4992053;28;20428;-84
2022/05/24 13:22:56;;;;;;;3.70;1.87;;;16.40;99.90;;;;;;4991786;28;20428;-84
2022/05/24 13:25:43;;;;;;;3.17;2.00;;;16.90;99.90;;;;;;4993314;28;20437;-85
2022/05/24 13:28:09;;;;;;;2.50;1.67;;;17.10;99.90;;;;;;4992262;28;20421;-84
2022/05/24 13:33:42;;;;;;;5.70;1.60;;;17.50;99.90;;;;;;4993207;28;20794;-85
2022/05/24 13:36:11;;;;;;;5.07;2.00;;;17.70;99.90;;;;;;4991886;28;20826;-85
2022/05/24 13:38:36;;;;;;;2.70;1.70;;;18.20;99.90;;;;;;4992101;28;20449;-85
2022/05/24 13:41:02;;;;;;;4.37;2.00;;;18.50;99.90;;;;;;4991913;28;20457;-85
2022/05/24 13:43:39;;;;;;;3.70;1.90;;;18.70;99.90;;;;;;4992023;28;20196;-86
2022/05/24 13:46:20;;;;;;;2.70;1.60;;;18.80;99.90;;;;;;4991977;28;20272;-85
2022/05/24 13:48:53;;;;;;;4.57;2.00;;;19.20;99.90;;;;;;4992113;28;20796;-86
2022/05/24 13:51:34;;;;;;;3.33;2.20;;;19.40;99.90;;;;;;4991794;28;20531;-83
2022/05/24 13:54:02;;;;;;;2.73;1.63;;;19.40;99.90;;;;;;4991424;28;20467;-83
2022/05/24 13:56:36;;;;;;;2.67;1.90;;;19.30;99.90;;;;;;4991251;28;20445;-82
2022/05/24 13:59:16;;;;;;;3.10;1.90;;;19.10;99.90;;;;;;4992981;28;20863;-82